sensor_id;sensor_type;location;lat;lon;timestamp;P1;durP1;ratioP1;P2;durP2;ratioP2
29246;SDS011;16272;48.188;9.964;2024-03-23T00:53:38;9.63;;;4.50;;
29246;SDS011;16272;48.188;9.964;2024-03-23T00:56:04;9.23;;;4.50;;
29246;SDS011;16272;48.188;9.964;2024-03-23T00:58:29;10.07;;;4.70;;
29246;SDS011;16272;48.188;9.964;2024-03-23T01:00:55;8.80;;;4.40;;
29246;SDS011;16272;48.188;9.964;2024-03-23T01:03:20;9.07;;;4.40;;
29246;SDS011;16272;48.188;9.964;2024-03-23T01:05:46;9.83;;;4.50;;
29246;SDS011;16272;48.188;9.964;2024-03-23T01:08:11;10.03;;;4.60;;
29246;SDS011;16272;48.188;9.964;2024-03-23T01:10:36;8.47;;;4.30;;
29246;SDS011;16272;48.188;9.964;2024-03-23T01:13:01;9.37;;;4.50;;
29246;SDS011;16272;48.188;9.964;2024-03-23T01:15:27;8.77;;;4.57;;
29246;SDS011;16272;48.188;9.964;2024-03-23T01:17:52;8.60;;;4.30;;
29246;SDS011;16272;48.188;9.964;2024-03-23T01:20:18;9.50;;;4.70;;
29246;SDS011;16272;48.188;9.964;2024-03-23T01:22:43;9.70;;;4.67;;
29246;SDS011;16272;48.188;9.964;2024-03-23T01:25:08;8.80;;;4.20;;
29246;SDS011;16272;48.188;9.964;2024-03-23T01:27:34;9.60;;;3.55;;
29246;SDS011;16272;48.188;9.964;2024-03-23T01:29:59;9.67;;;4.10;;
29246;SDS011;16272;48.188;9.964;2024-03-23T01:32:24;9.17;;;4.40;;
29246;SDS011;16272;48.188;9.964;2024-03-23T01:34:50;9.50;;;4.10;;
29246;SDS011;16272;48.188;9.964;2024-03-23T01:37:15;8.73;;;4.27;;
29246;SDS011;16272;48.188;9.964;2024-03-23T01:39:40;8.70;;;4.00;;
29246;SDS011;16272;48.188;9.964;2024-03-23T01:42:06;8.70;;;4.47;;
29246;SDS011;16272;48.188;9.964;2024-03-23T01:44:31;8.80;;;4.20;;
29246;SDS011;16272;48.188;9.964;2024-03-23T01:46:56;8.17;;;3.93;;
29246;SDS011;16272;48.188;9.964;2024-03-23T01:49:21;7.72;;;3.80;;
29246;SDS011;16272;48.188;9.964;2024-03-23T01:51:47;8.20;;;3.70;;
29246;SDS011;16272;48.188;9.964;2024-03-23T01:54:12;9.10;;;4.00;;
29246;SDS011;16272;48.188;9.964;2024-03-23T01:56:38;8.38;;;3.90;;
29246;SDS011;16272;48.188;9.964;2024-03-23T01:59:04;8.40;;;3.97;;
29246;SDS011;16272;48.188;9.964;2024-03-23T02:01:31;8.53;;;3.87;;
29246;SDS011;16272;48.188;9.964;2024-03-23T02:03:57;8.47;;;3.83;;
29246;SDS011;16272;48.188;9.964;2024-03-23T02:06:23;8.18;;;3.97;;
29246;SDS011;16272;48.188;9.964;2024-03-23T02:08:49;8.10;;;3.85;;
29246;SDS011;16272;48.188;9.964;2024-03-23T02:11:14;8.00;;;4.03;;
29246;SDS011;16272;48.188;9.964;2024-03-23T02:13:40;8.30;;;3.80;;
29246;SDS011;16272;48.188;9.964;2024-03-23T02:16:05;8.43;;;4.07;;
29246;SDS011;16272;48.188;9.964;2024-03-23T02:18:32;8.60;;;4.15;;
29246;SDS011;16272;48.188;9.964;2024-03-23T02:20:57;9.13;;;3.97;;
29246;SDS011;16272;48.188;9.964;2024-03-23T02:23:23;8.17;;;4.10;;
29246;SDS011;16272;48.188;9.964;2024-03-23T02:25:49;8.60;;;3.90;;
29246;SDS011;16272;48.188;9.964;2024-03-23T02:28:14;8.15;;;3.80;;
29246;SDS011;16272;48.188;9.964;2024-03-23T02:30:40;7.90;;;3.80;;
29246;SDS011;16272;48.188;9.964;2024-03-23T02:33:05;7.97;;;3.07;;
29246;SDS011;16272;48.188;9.964;2024-03-23T02:35:30;8.53;;;3.60;;
29246;SDS011;16272;48.188;9.964;2024-03-23T02:37:56;7.77;;;3.03;;
29246;SDS011;16272;48.188;9.964;2024-03-23T02:40:22;7.78;;;3.60;;
29246;SDS011;16272;48.188;9.964;2024-03-23T02:42:48;6.97;;;2.70;;
29246;SDS011;16272;48.188;9.964;2024-03-23T02:45:13;9.60;;;3.53;;
29246;SDS011;16272;48.188;9.964;2024-03-23T02:47:39;8.40;;;3.67;;
29246;SDS011;16272;48.188;9.964;2024-03-23T02:50:04;8.17;;;3.40;;
29246;SDS011;16272;48.188;9.964;2024-03-23T02:52:30;7.00;;;2.70;;
29246;SDS011;16272;48.188;9.964;2024-03-23T02:54:56;8.30;;;3.70;;
29246;SDS011;16272;48.188;9.964;2024-03-23T02:57:21;8.27;;;3.50;;
29246;SDS011;16272;48.188;9.964;2024-03-23T02:59:47;8.57;;;3.77;;
29246;SDS011;16272;48.188;9.964;2024-03-23T03:02:13;9.87;;;3.77;;
29246;SDS011;16272;48.188;9.964;2024-03-23T03:04:39;6.88;;;2.65;;
29246;SDS011;16272;48.188;9.964;2024-03-23T03:07:04;7.57;;;3.27;;
29246;SDS011;16272;48.188;9.964;2024-03-23T03:09:30;7.97;;;3.37;;
29246;SDS011;16272;48.188;9.964;2024-03-23T03:11:55;6.37;;;2.43;;
29246;SDS011;16272;48.188;9.964;2024-03-23T03:14:20;7.95;;;3.05;;
29246;SDS011;16272;48.188;9.964;2024-03-23T03:16:46;7.67;;;2.67;;
29246;SDS011;16272;48.188;9.964;2024-03-23T03:19:11;7.43;;;3.10;;
29246;SDS011;16272;48.188;9.964;2024-03-23T03:21:36;8.40;;;3.30;;
29246;SDS011;16272;48.188;9.964;2024-03-23T03:26:27;6.93;;;2.80;;
29246;SDS011;16272;48.188;9.964;2024-03-23T03:28:52;7.60;;;3.33;;
29246;SDS011;16272;48.188;9.964;2024-03-23T03:31:18;6.93;;;2.92;;
29246;SDS011;16272;48.188;9.964;2024-03-23T03:33:43;6.70;;;2.80;;
29246;SDS011;16272;48.188;9.964;2024-03-23T03:36:09;7.80;;;3.17;;
29246;SDS011;16272;48.188;9.964;2024-03-23T03:38:34;7.88;;;3.28;;
29246;SDS011;16272;48.188;9.964;2024-03-23T03:41:00;6.83;;;2.70;;
29246;SDS011;16272;48.188;9.964;2024-03-23T03:43:26;8.07;;;3.17;;
29246;SDS011;16272;48.188;9.964;2024-03-23T03:45:54;7.83;;;3.10;;
29246;SDS011;16272;48.188;9.964;2024-03-23T03:48:21;7.60;;;3.28;;
29246;SDS011;16272;48.188;9.964;2024-03-23T03:50:47;7.93;;;3.13;;
29246;SDS011;16272;48.188;9.964;2024-03-23T03:53:12;8.10;;;2.90;;
29246;SDS011;16272;48.188;9.964;2024-03-23T03:55:37;7.20;;;3.10;;
29246;SDS011;16272;48.188;9.964;2024-03-23T03:58:03;7.63;;;2.83;;
29246;SDS011;16272;48.188;9.964;2024-03-23T04:00:29;7.47;;;2.75;;
29246;SDS011;16272;48.188;9.964;2024-03-23T04:02:55;7.50;;;3.00;;
29246;SDS011;16272;48.188;9.964;2024-03-23T04:05:20;7.20;;;2.80;;
29246;SDS011;16272;48.188;9.964;2024-03-23T04:07:46;8.10;;;3.00;;
29246;SDS011;16272;48.188;9.964;2024-03-23T04:10:11;7.73;;;3.00;;
29246;SDS011;16272;48.188;9.964;2024-03-23T04:12:36;7.30;;;3.10;;
29246;SDS011;16272;48.188;9.964;2024-03-23T04:15:02;7.47;;;2.77;;
29246;SDS011;16272;48.188;9.964;2024-03-23T04:17:29;7.32;;;2.80;;
29246;SDS011;16272;48.188;9.964;2024-03-23T04:19:59;7.18;;;3.00;;
29246;SDS011;16272;48.188;9.964;2024-03-23T04:22:26;7.63;;;3.03;;
29246;SDS011;16272;48.188;9.964;2024-03-23T04:24:54;7.10;;;2.97;;
29246;SDS011;16272;48.188;9.964;2024-03-23T04:27:23;9.00;;;2.70;;
29246;SDS011;16272;48.188;9.964;2024-03-23T04:29:49;7.07;;;2.80;;
29246;SDS011;16272;48.188;9.964;2024-03-23T04:32:14;7.20;;;2.70;;
29246;SDS011;16272;48.188;9.964;2024-03-23T04:34:40;7.17;;;3.00;;
29246;SDS011;16272;48.188;9.964;2024-03-23T04:37:05;7.37;;;3.10;;
29246;SDS011;16272;48.188;9.964;2024-03-23T04:39:31;7.30;;;3.00;;
29246;SDS011;16272;48.188;9.964;2024-03-23T04:41:56;6.82;;;2.85;;
29246;SDS011;16272;48.188;9.964;2024-03-23T04:44:21;7.03;;;3.00;;
29246;SDS011;16272;48.188;9.964;2024-03-23T04:46:47;6.80;;;2.83;;
29246;SDS011;16272;48.188;9.964;2024-03-23T04:49:12;7.37;;;3.00;;
29246;SDS011;16272;48.188;9.964;2024-03-23T04:51:37;8.63;;;2.80;;
29246;SDS011;16272;48.188;9.964;2024-03-23T04:54:03;7.10;;;2.60;;
29246;SDS011;16272;48.188;9.964;2024-03-23T04:56:29;7.47;;;3.03;;
29246;SDS011;16272;48.188;9.964;2024-03-23T04:58:54;7.70;;;3.00;;
29246;SDS011;16272;48.188;9.964;2024-03-23T05:01:19;6.73;;;2.53;;
29246;SDS011;16272;48.188;9.964;2024-03-23T05:03:45;7.53;;;2.95;;
29246;SDS011;16272;48.188;9.964;2024-03-23T05:06:10;8.10;;;3.00;;
29246;SDS011;16272;48.188;9.964;2024-03-23T05:08:35;7.13;;;2.80;;
29246;SDS011;16272;48.188;9.964;2024-03-23T05:11:01;8.20;;;2.93;;
29246;SDS011;16272;48.188;9.964;2024-03-23T05:13:26;6.77;;;2.70;;
29246;SDS011;16272;48.188;9.964;2024-03-23T05:15:54;7.20;;;2.90;;
29246;SDS011;16272;48.188;9.964;2024-03-23T05:18:20;7.47;;;2.80;;
29246;SDS011;16272;48.188;9.964;2024-03-23T05:20:46;7.78;;;3.10;;
29246;SDS011;16272;48.188;9.964;2024-03-23T05:23:11;8.30;;;2.90;;
29246;SDS011;16272;48.188;9.964;2024-03-23T05:25:37;7.27;;;2.93;;
29246;SDS011;16272;48.188;9.964;2024-03-23T05:28:02;8.47;;;3.20;;
29246;SDS011;16272;48.188;9.964;2024-03-23T05:30:28;6.32;;;1.88;;
29246;SDS011;16272;48.188;9.964;2024-03-23T05:32:53;7.00;;;2.70;;
29246;SDS011;16272;48.188;9.964;2024-03-23T05:35:19;6.60;;;2.67;;
29246;SDS011;16272;48.188;9.964;2024-03-23T05:37:44;6.57;;;2.73;;
29246;SDS011;16272;48.188;9.964;2024-03-23T05:40:10;6.90;;;2.80;;
29246;SDS011;16272;48.188;9.964;2024-03-23T05:42:35;7.63;;;2.90;;
29246;SDS011;16272;48.188;9.964;2024-03-23T05:45:01;7.30;;;2.93;;
29246;SDS011;16272;48.188;9.964;2024-03-23T05:47:26;7.28;;;2.85;;
29246;SDS011;16272;48.188;9.964;2024-03-23T05:49:51;6.47;;;2.77;;
29246;SDS011;16272;48.188;9.964;2024-03-23T05:52:17;7.90;;;2.70;;
29246;SDS011;16272;48.188;9.964;2024-03-23T05:54:42;7.17;;;2.90;;
29246;SDS011;16272;48.188;9.964;2024-03-23T05:57:08;8.17;;;2.67;;
29246;SDS011;16272;48.188;9.964;2024-03-23T05:59:34;8.03;;;3.00;;
29246;SDS011;16272;48.188;9.964;2024-03-23T06:01:59;7.45;;;2.65;;
29246;SDS011;16272;48.188;9.964;2024-03-23T06:04:25;7.10;;;2.90;;
29246;SDS011;16272;48.188;9.964;2024-03-23T06:06:53;7.57;;;2.73;;
29246;SDS011;16272;48.188;9.964;2024-03-23T06:09:19;9.07;;;2.87;;
29246;SDS011;16272;48.188;9.964;2024-03-23T06:11:44;7.75;;;2.70;;
29246;SDS011;16272;48.188;9.964;2024-03-23T06:14:10;7.70;;;3.10;;
29246;SDS011;16272;48.188;9.964;2024-03-23T06:16:35;7.60;;;2.60;;
29246;SDS011;16272;48.188;9.964;2024-03-23T06:19:00;8.20;;;2.87;;
29246;SDS011;16272;48.188;9.964;2024-03-23T06:21:28;6.90;;;2.97;;
29246;SDS011;16272;48.188;9.964;2024-03-23T06:23:54;8.33;;;3.10;;
29246;SDS011;16272;48.188;9.964;2024-03-23T06:26:19;7.30;;;3.00;;
29246;SDS011;16272;48.188;9.964;2024-03-23T06:28:46;7.23;;;2.90;;
29246;SDS011;16272;48.188;9.964;2024-03-23T06:31:14;7.82;;;3.10;;
29246;SDS011;16272;48.188;9.964;2024-03-23T06:33:40;8.43;;;3.30;;
29246;SDS011;16272;48.188;9.964;2024-03-23T06:36:07;7.38;;;3.17;;
29246;SDS011;16272;48.188;9.964;2024-03-23T06:38:34;8.35;;;3.40;;
29246;SDS011;16272;48.188;9.964;2024-03-23T06:41:02;7.50;;;3.27;;
29246;SDS011;16272;48.188;9.964;2024-03-23T06:43:28;8.02;;;3.40;;
29246;SDS011;16272;48.188;9.964;2024-03-23T06:45:53;7.70;;;3.17;;
29246;SDS011;16272;48.188;9.964;2024-03-23T06:48:19;7.20;;;3.00;;
29246;SDS011;16272;48.188;9.964;2024-03-23T06:50:45;7.63;;;3.33;;
29246;SDS011;16272;48.188;9.964;2024-03-23T06:53:15;8.15;;;3.40;;
29246;SDS011;16272;48.188;9.964;2024-03-23T06:55:41;9.03;;;3.67;;
29246;SDS011;16272;48.188;9.964;2024-03-23T06:58:06;7.93;;;3.70;;
29246;SDS011;16272;48.188;9.964;2024-03-23T07:00:32;7.18;;;2.75;;
29246;SDS011;16272;48.188;9.964;2024-03-23T07:02:58;8.00;;;2.73;;
29246;SDS011;16272;48.188;9.964;2024-03-23T07:05:24;7.50;;;3.20;;
29246;SDS011;16272;48.188;9.964;2024-03-23T07:07:49;7.00;;;3.10;;
29246;SDS011;16272;48.188;9.964;2024-03-23T07:10:15;7.73;;;3.33;;
29246;SDS011;16272;48.188;9.964;2024-03-23T07:12:40;7.47;;;3.10;;
29246;SDS011;16272;48.188;9.964;2024-03-23T07:15:06;8.30;;;3.10;;
29246;SDS011;16272;48.188;9.964;2024-03-23T07:17:33;7.88;;;2.78;;
29246;SDS011;16272;48.188;9.964;2024-03-23T07:20:00;7.95;;;3.40;;
29246;SDS011;16272;48.188;9.964;2024-03-23T07:22:26;7.80;;;2.70;;
29246;SDS011;16272;48.188;9.964;2024-03-23T07:24:51;6.93;;;2.80;;
29246;SDS011;16272;48.188;9.964;2024-03-23T07:27:17;7.70;;;2.70;;
29246;SDS011;16272;48.188;9.964;2024-03-23T07:29:42;7.33;;;2.97;;
29246;SDS011;16272;48.188;9.964;2024-03-23T07:32:07;6.57;;;2.60;;
29246;SDS011;16272;48.188;9.964;2024-03-23T07:34:33;6.93;;;2.97;;
29246;SDS011;16272;48.188;9.964;2024-03-23T07:36:58;6.47;;;2.40;;
29246;SDS011;16272;48.188;9.964;2024-03-23T07:39:23;6.07;;;1.90;;
29246;SDS011;16272;48.188;9.964;2024-03-23T07:41:49;6.70;;;2.40;;
29246;SDS011;16272;48.188;9.964;2024-03-23T07:44:15;7.70;;;2.90;;
29246;SDS011;16272;48.188;9.964;2024-03-23T07:46:40;7.30;;;3.10;;
29246;SDS011;16272;48.188;9.964;2024-03-23T07:49:05;7.60;;;3.00;;
29246;SDS011;16272;48.188;9.964;2024-03-23T07:51:30;7.97;;;3.20;;
29246;SDS011;16272;48.188;9.964;2024-03-23T07:53:56;8.47;;;3.40;;
29246;SDS011;16272;48.188;9.964;2024-03-23T07:56:21;7.63;;;3.20;;
29246;SDS011;16272;48.188;9.964;2024-03-23T07:58:48;8.10;;;3.30;;
29246;SDS011;16272;48.188;9.964;2024-03-23T08:01:14;8.10;;;3.57;;
29246;SDS011;16272;48.188;9.964;2024-03-23T08:03:44;6.20;;;2.00;;
29246;SDS011;16272;48.188;9.964;2024-03-23T08:06:11;6.70;;;2.13;;
29246;SDS011;16272;48.188;9.964;2024-03-23T08:08:38;5.85;;;1.60;;
29246;SDS011;16272;48.188;9.964;2024-03-23T08:11:04;5.10;;;1.23;;
29246;SDS011;16272;48.188;9.964;2024-03-23T08:13:29;5.30;;;1.20;;
29246;SDS011;16272;48.188;9.964;2024-03-23T08:15:56;4.57;;;1.02;;
29246;SDS011;16272;48.188;9.964;2024-03-23T08:18:22;4.82;;;1.10;;
29246;SDS011;16272;48.188;9.964;2024-03-23T08:20:54;4.97;;;1.17;;
29246;SDS011;16272;48.188;9.964;2024-03-23T08:23:26;4.78;;;1.17;;
29246;SDS011;16272;48.188;9.964;2024-03-23T08:25:59;4.90;;;1.10;;
29246;SDS011;16272;48.188;9.964;2024-03-23T08:28:25;4.93;;;1.00;;
29246;SDS011;16272;48.188;9.964;2024-03-23T08:30:52;5.53;;;1.20;;
29246;SDS011;16272;48.188;9.964;2024-03-23T08:33:18;5.20;;;1.15;;
29246;SDS011;16272;48.188;9.964;2024-03-23T08:35:52;3.90;;;0.80;;
29246;SDS011;16272;48.188;9.964;2024-03-23T08:38:19;4.53;;;1.08;;
29246;SDS011;16272;48.188;9.964;2024-03-23T08:40:44;4.87;;;1.20;;
29246;SDS011;16272;48.188;9.964;2024-03-23T08:43:09;3.83;;;0.80;;
29246;SDS011;16272;48.188;9.964;2024-03-23T08:45:34;3.50;;;0.80;;
29246;SDS011;16272;48.188;9.964;2024-03-23T08:48:00;3.10;;;0.70;;
29246;SDS011;16272;48.188;9.964;2024-03-23T08:50:25;2.67;;;0.60;;
29246;SDS011;16272;48.188;9.964;2024-03-23T08:52:50;3.28;;;0.60;;
29246;SDS011;16272;48.188;9.964;2024-03-23T08:55:16;2.70;;;0.50;;
29246;SDS011;16272;48.188;9.964;2024-03-23T08:57:41;2.33;;;0.50;;
29246;SDS011;16272;48.188;9.964;2024-03-23T09:00:07;2.70;;;0.70;;
29246;SDS011;16272;48.188;9.964;2024-03-23T09:02:33;2.55;;;0.60;;
29246;SDS011;16272;48.188;9.964;2024-03-23T09:04:59;2.20;;;0.50;;
29246;SDS011;16272;48.188;9.964;2024-03-23T09:07:29;2.33;;;0.50;;
29246;SDS011;16272;48.188;9.964;2024-03-23T09:09:57;2.58;;;0.50;;
29246;SDS011;16272;48.188;9.964;2024-03-23T09:12:23;2.73;;;0.57;;
29246;SDS011;16272;48.188;9.964;2024-03-23T09:14:49;3.28;;;0.60;;
29246;SDS011;16272;48.188;9.964;2024-03-23T09:17:15;2.20;;;0.40;;
29246;SDS011;16272;48.188;9.964;2024-03-23T09:19:41;3.50;;;0.50;;
29246;SDS011;16272;48.188;9.964;2024-03-23T09:22:06;3.40;;;0.60;;
29246;SDS011;16272;48.188;9.964;2024-03-23T09:24:31;2.70;;;0.60;;
29246;SDS011;16272;48.188;9.964;2024-03-23T09:26:57;3.35;;;0.60;;
29246;SDS011;16272;48.188;9.964;2024-03-23T09:29:22;3.50;;;0.77;;
29246;SDS011;16272;48.188;9.964;2024-03-23T09:31:47;4.87;;;0.83;;
29246;SDS011;16272;48.188;9.964;2024-03-23T09:34:13;3.83;;;0.70;;
29246;SDS011;16272;48.188;9.964;2024-03-23T09:36:38;5.17;;;1.03;;
29246;SDS011;16272;48.188;9.964;2024-03-23T09:39:03;4.88;;;1.00;;
29246;SDS011;16272;48.188;9.964;2024-03-23T09:41:30;5.43;;;1.25;;
29246;SDS011;16272;48.188;9.964;2024-03-23T09:43:55;5.07;;;1.00;;
29246;SDS011;16272;48.188;9.964;2024-03-23T09:46:21;4.87;;;1.10;;
29246;SDS011;16272;48.188;9.964;2024-03-23T09:48:46;4.45;;;0.95;;
29246;SDS011;16272;48.188;9.964;2024-03-23T09:51:12;5.88;;;1.50;;
29246;SDS011;16272;48.188;9.964;2024-03-23T09:53:38;5.80;;;1.40;;
29246;SDS011;16272;48.188;9.964;2024-03-23T09:56:04;5.75;;;1.10;;
29246;SDS011;16272;48.188;9.964;2024-03-23T09:58:29;5.83;;;1.30;;
29246;SDS011;16272;48.188;9.964;2024-03-23T10:00:57;4.97;;;1.13;;
29246;SDS011;16272;48.188;9.964;2024-03-23T10:03:22;5.90;;;1.50;;
29246;SDS011;16272;48.188;9.964;2024-03-23T10:05:47;6.67;;;1.30;;
29246;SDS011;16272;48.188;9.964;2024-03-23T10:08:25;5.50;;;1.20;;
29246;SDS011;16272;48.188;9.964;2024-03-23T10:10:51;6.13;;;1.40;;
29246;SDS011;16272;48.188;9.964;2024-03-23T10:13:25;5.73;;;1.43;;
29246;SDS011;16272;48.188;9.964;2024-03-23T10:15:57;5.90;;;1.40;;
29246;SDS011;16272;48.188;9.964;2024-03-23T10:18:24;6.50;;;1.60;;
29246;SDS011;16272;48.188;9.964;2024-03-23T10:20:52;6.50;;;1.63;;
29246;SDS011;16272;48.188;9.964;2024-03-23T10:23:31;6.00;;;1.60;;
29246;SDS011;16272;48.188;9.964;2024-03-23T10:28:56;6.72;;;1.45;;
29246;SDS011;16272;48.188;9.964;2024-03-23T10:31:33;6.65;;;1.83;;
29246;SDS011;16272;48.188;9.964;2024-03-23T10:33:58;6.17;;;1.93;;
29246;SDS011;16272;48.188;9.964;2024-03-23T10:36:25;5.43;;;1.30;;
29246;SDS011;16272;48.188;9.964;2024-03-23T10:38:51;6.43;;;1.70;;
29246;SDS011;16272;48.188;9.964;2024-03-23T10:41:17;6.30;;;1.60;;
29246;SDS011;16272;48.188;9.964;2024-03-23T10:43:44;6.50;;;1.30;;
29246;SDS011;16272;48.188;9.964;2024-03-23T10:46:11;6.57;;;1.50;;
29246;SDS011;16272;48.188;9.964;2024-03-23T10:48:36;6.97;;;1.90;;
29246;SDS011;16272;48.188;9.964;2024-03-23T10:51:01;7.27;;;1.80;;
29246;SDS011;16272;48.188;9.964;2024-03-23T10:53:28;7.97;;;1.55;;
29246;SDS011;16272;48.188;9.964;2024-03-23T10:55:54;6.00;;;2.00;;
29246;SDS011;16272;48.188;9.964;2024-03-23T10:58:22;7.20;;;2.20;;
29246;SDS011;16272;48.188;9.964;2024-03-23T11:00:51;6.95;;;2.38;;
29246;SDS011;16272;48.188;9.964;2024-03-23T11:03:37;8.27;;;2.20;;
29246;SDS011;16272;48.188;9.964;2024-03-23T11:06:04;7.00;;;2.10;;
29246;SDS011;16272;48.188;9.964;2024-03-23T11:08:34;7.73;;;2.50;;
29246;SDS011;16272;48.188;9.964;2024-03-23T11:13:43;8.33;;;2.40;;
29246;SDS011;16272;48.188;9.964;2024-03-23T11:16:15;7.68;;;2.40;;
29246;SDS011;16272;48.188;9.964;2024-03-23T11:18:41;7.53;;;2.20;;
29246;SDS011;16272;48.188;9.964;2024-03-23T11:21:08;9.07;;;2.40;;
29246;SDS011;16272;48.188;9.964;2024-03-23T11:23:34;7.47;;;2.50;;
29246;SDS011;16272;48.188;9.964;2024-03-23T11:25:59;8.02;;;2.40;;
29246;SDS011;16272;48.188;9.964;2024-03-23T11:28:25;8.70;;;2.83;;
29246;SDS011;16272;48.188;9.964;2024-03-23T11:30:50;7.50;;;2.50;;
29246;SDS011;16272;48.188;9.964;2024-03-23T11:33:15;7.23;;;2.20;;
29246;SDS011;16272;48.188;9.964;2024-03-23T11:35:41;7.37;;;2.27;;
29246;SDS011;16272;48.188;9.964;2024-03-23T11:38:16;7.47;;;2.10;;
29246;SDS011;16272;48.188;9.964;2024-03-23T11:40:52;8.10;;;2.30;;
29246;SDS011;16272;48.188;9.964;2024-03-23T11:43:19;7.57;;;2.10;;
29246;SDS011;16272;48.188;9.964;2024-03-23T11:45:47;6.82;;;1.70;;
29246;SDS011;16272;48.188;9.964;2024-03-23T11:48:20;7.95;;;2.00;;
29246;SDS011;16272;48.188;9.964;2024-03-23T11:50:47;8.43;;;2.47;;
29246;SDS011;16272;48.188;9.964;2024-03-23T11:53:17;9.27;;;2.53;;
29246;SDS011;16272;48.188;9.964;2024-03-23T11:55:50;6.95;;;2.30;;
29246;SDS011;16272;48.188;9.964;2024-03-23T11:58:20;7.55;;;2.17;;
29246;SDS011;16272;48.188;9.964;2024-03-23T12:00:59;7.13;;;2.22;;
29246;SDS011;16272;48.188;9.964;2024-03-23T12:03:27;6.95;;;2.10;;
29246;SDS011;16272;48.188;9.964;2024-03-23T12:05:54;7.90;;;2.00;;
29246;SDS011;16272;48.188;9.964;2024-03-23T12:08:24;7.22;;;1.92;;
29246;SDS011;16272;48.188;9.964;2024-03-23T12:11:04;7.22;;;1.85;;
29246;SDS011;16272;48.188;9.964;2024-03-23T12:13:37;6.68;;;1.90;;
29246;SDS011;16272;48.188;9.964;2024-03-23T12:18:40;6.88;;;1.80;;
29246;SDS011;16272;48.188;9.964;2024-03-23T12:21:06;6.03;;;1.20;;
29246;SDS011;16272;48.188;9.964;2024-03-23T12:23:32;4.40;;;1.00;;
29246;SDS011;16272;48.188;9.964;2024-03-23T12:25:58;6.20;;;1.10;;
29246;SDS011;16272;48.188;9.964;2024-03-23T12:28:23;7.40;;;1.40;;
29246;SDS011;16272;48.188;9.964;2024-03-23T12:30:48;6.13;;;1.50;;
29246;SDS011;16272;48.188;9.964;2024-03-23T12:33:14;7.67;;;1.57;;
29246;SDS011;16272;48.188;9.964;2024-03-23T12:35:39;6.60;;;1.43;;
29246;SDS011;16272;48.188;9.964;2024-03-23T12:38:04;7.10;;;1.60;;
29246;SDS011;16272;48.188;9.964;2024-03-23T12:40:30;5.33;;;1.07;;
29246;SDS011;16272;48.188;9.964;2024-03-23T12:42:55;5.60;;;1.20;;
29246;SDS011;16272;48.188;9.964;2024-03-23T12:45:23;6.60;;;1.40;;
29246;SDS011;16272;48.188;9.964;2024-03-23T12:47:49;6.23;;;1.30;;
29246;SDS011;16272;48.188;9.964;2024-03-23T12:50:15;7.10;;;1.50;;
29246;SDS011;16272;48.188;9.964;2024-03-23T12:52:40;6.33;;;1.30;;
29246;SDS011;16272;48.188;9.964;2024-03-23T12:55:06;6.85;;;1.40;;
29246;SDS011;16272;48.188;9.964;2024-03-23T12:57:32;6.05;;;1.20;;
29246;SDS011;16272;48.188;9.964;2024-03-23T12:59:58;6.27;;;1.20;;
29246;SDS011;16272;48.188;9.964;2024-03-23T13:02:23;5.43;;;1.10;;
29246;SDS011;16272;48.188;9.964;2024-03-23T13:04:52;5.20;;;1.20;;
29246;SDS011;16272;48.188;9.964;2024-03-23T13:07:18;6.25;;;1.80;;
29246;SDS011;16272;48.188;9.964;2024-03-23T13:09:44;5.85;;;1.00;;
29246;SDS011;16272;48.188;9.964;2024-03-23T13:12:10;6.77;;;1.30;;
29246;SDS011;16272;48.188;9.964;2024-03-23T13:14:37;5.97;;;1.35;;
29246;SDS011;16272;48.188;9.964;2024-03-23T13:17:03;3.90;;;1.00;;
29246;SDS011;16272;48.188;9.964;2024-03-23T13:19:29;6.35;;;1.38;;
29246;SDS011;16272;48.188;9.964;2024-03-23T13:21:59;5.87;;;1.40;;
29246;SDS011;16272;48.188;9.964;2024-03-23T13:24:26;5.93;;;1.50;;
29246;SDS011;16272;48.188;9.964;2024-03-23T13:26:52;6.38;;;1.25;;
29246;SDS011;16272;48.188;9.964;2024-03-23T13:29:19;6.88;;;1.60;;
29246;SDS011;16272;48.188;9.964;2024-03-23T13:31:44;5.57;;;1.33;;
29246;SDS011;16272;48.188;9.964;2024-03-23T13:34:10;4.90;;;1.15;;
29246;SDS011;16272;48.188;9.964;2024-03-23T13:36:36;6.50;;;1.30;;
29246;SDS011;16272;48.188;9.964;2024-03-23T13:39:02;5.30;;;1.30;;
29246;SDS011;16272;48.188;9.964;2024-03-23T13:41:32;6.65;;;1.67;;
29246;SDS011;16272;48.188;9.964;2024-03-23T13:43:57;5.67;;;1.10;;
29246;SDS011;16272;48.188;9.964;2024-03-23T13:46:22;5.77;;;1.40;;
29246;SDS011;16272;48.188;9.964;2024-03-23T13:48:48;6.37;;;1.53;;
29246;SDS011;16272;48.188;9.964;2024-03-23T13:51:13;7.22;;;1.55;;
29246;SDS011;16272;48.188;9.964;2024-03-23T13:53:38;6.00;;;1.30;;
29246;SDS011;16272;48.188;9.964;2024-03-23T13:56:04;6.57;;;1.60;;
29246;SDS011;16272;48.188;9.964;2024-03-23T13:58:29;5.93;;;1.50;;
29246;SDS011;16272;48.188;9.964;2024-03-23T14:00:56;7.57;;;1.83;;
29246;SDS011;16272;48.188;9.964;2024-03-23T14:03:22;6.10;;;1.70;;
29246;SDS011;16272;48.188;9.964;2024-03-23T14:05:48;7.03;;;1.70;;
29246;SDS011;16272;48.188;9.964;2024-03-23T14:08:13;5.80;;;1.20;;
29246;SDS011;16272;48.188;9.964;2024-03-23T14:10:42;7.03;;;1.50;;
29246;SDS011;16272;48.188;9.964;2024-03-23T14:13:08;7.50;;;1.55;;
29246;SDS011;16272;48.188;9.964;2024-03-23T14:15:33;6.63;;;1.43;;
29246;SDS011;16272;48.188;9.964;2024-03-23T14:17:59;7.77;;;1.50;;
29246;SDS011;16272;48.188;9.964;2024-03-23T14:20:25;7.45;;;1.50;;
29246;SDS011;16272;48.188;9.964;2024-03-23T14:22:50;7.13;;;1.40;;
29246;SDS011;16272;48.188;9.964;2024-03-23T14:25:16;7.32;;;1.30;;
29246;SDS011;16272;48.188;9.964;2024-03-23T14:27:45;6.67;;;1.50;;
29246;SDS011;16272;48.188;9.964;2024-03-23T14:30:11;6.50;;;1.48;;
29246;SDS011;16272;48.188;9.964;2024-03-23T14:32:38;7.40;;;1.40;;
29246;SDS011;16272;48.188;9.964;2024-03-23T14:35:04;7.03;;;1.70;;
29246;SDS011;16272;48.188;9.964;2024-03-23T14:37:29;7.78;;;1.50;;
29246;SDS011;16272;48.188;9.964;2024-03-23T14:39:55;5.32;;;1.20;;
29246;SDS011;16272;48.188;9.964;2024-03-23T14:42:21;7.53;;;1.60;;
29246;SDS011;16272;48.188;9.964;2024-03-23T14:44:47;6.10;;;1.20;;
29246;SDS011;16272;48.188;9.964;2024-03-23T14:47:12;7.33;;;0.90;;
29246;SDS011;16272;48.188;9.964;2024-03-23T14:49:37;6.37;;;1.00;;
29246;SDS011;16272;48.188;9.964;2024-03-23T14:52:03;7.07;;;1.40;;
29246;SDS011;16272;48.188;9.964;2024-03-23T14:54:28;5.93;;;1.00;;
29246;SDS011;16272;48.188;9.964;2024-03-23T14:56:54;6.03;;;1.10;;
29246;SDS011;16272;48.188;9.964;2024-03-23T14:59:19;6.70;;;1.30;;
29246;SDS011;16272;48.188;9.964;2024-03-23T15:01:45;4.45;;;0.80;;
29246;SDS011;16272;48.188;9.964;2024-03-23T15:04:11;6.43;;;1.40;;
29246;SDS011;16272;48.188;9.964;2024-03-23T15:06:36;10.07;;;2.70;;
29246;SDS011;16272;48.188;9.964;2024-03-23T15:09:01;16.10;;;5.03;;
29246;SDS011;16272;48.188;9.964;2024-03-23T15:11:26;10.13;;;1.85;;
29246;SDS011;16272;48.188;9.964;2024-03-23T15:13:52;12.23;;;2.77;;
29246;SDS011;16272;48.188;9.964;2024-03-23T15:16:17;9.60;;;2.33;;
29246;SDS011;16272;48.188;9.964;2024-03-23T15:18:45;10.00;;;2.47;;
29246;SDS011;16272;48.188;9.964;2024-03-23T15:21:11;7.50;;;1.50;;
29246;SDS011;16272;48.188;9.964;2024-03-23T15:23:37;6.30;;;1.50;;
29246;SDS011;16272;48.188;9.964;2024-03-23T15:26:02;4.20;;;1.03;;
29246;SDS011;16272;48.188;9.964;2024-03-23T15:28:29;6.47;;;1.43;;
29246;SDS011;16272;48.188;9.964;2024-03-23T15:31:13;5.07;;;0.82;;
29246;SDS011;16272;48.188;9.964;2024-03-23T15:33:39;5.17;;;1.10;;
29246;SDS011;16272;48.188;9.964;2024-03-23T15:36:05;6.85;;;1.63;;
29246;SDS011;16272;48.188;9.964;2024-03-23T15:38:31;5.25;;;0.90;;
29246;SDS011;16272;48.188;9.964;2024-03-23T15:40:56;5.87;;;1.30;;
29246;SDS011;16272;48.188;9.964;2024-03-23T15:43:22;4.15;;;0.70;;
29246;SDS011;16272;48.188;9.964;2024-03-23T15:45:56;5.63;;;1.50;;